LJMB/MBX METAR and TAF weather

Enter ICAO airport designator
Station Type Date Time Source
LJMB METAR 2020/06/02 18:00 UTC NOAA

LJMB 021800Z 36004KT 330V040 9999 BKN043 19/08 Q1012


Station Type Date Time Source
LJMB Decoded METAR 2020/06/02 18:00 UTC NOAA

Maribor / Slivnica, Slovenia (LJMB) 46-29N 015-41E 265M
Jun 02, 2020 - 02:00 PM EDT / 2020.06.02 1800 UTC
Wind: from the N (360 degrees) at 5 MPH (4 KT) (direction variable):0
Visibility: greater than 7 mile(s):0
Sky conditions: mostly cloudy
Temperature: 66 F (19 C)
Dew Point: 46 F (8 C)
Relative Humidity: 48%
Pressure (altimeter): 29.88 in. Hg (1012 hPa)
ob: LJMB 021800Z 36004KT 330V040 9999 BKN043 19/08 Q1012
cycle: 18

Station Type Date Time Source
LJMB TAF 2020/06/02 18:06 UTC NOAA

TAF LJMB 021700Z 0218/0318 36005KT 9999 SCT050
BECMG 0309/0312 19010KT
TEMPO 0312/0318 24010KT SHRA BKN050TCU BKN070 PROB40
TEMPO 0312/0318 34015G25KT 5000 TSRA SCT050CB BKN070

Example: see airport list